This is the latest recevied weather packets stored in our database for station/object KC8QDR-1. If no packets are shown the sender has not sent any weather packets the latest 10 day(s).
| Time | Temp. | Humidity | Pressure | Rain* | Wind** | Luminosity | Snow |
|---|---|---|---|---|---|---|---|
| 1777421925 | 18.33° C | 69% | 1021.9 hPa | 0 mm | 2.24 m/s, 287° | - | - |
| 1777421324 | 18.33° C | 66% | 1022.1 hPa | 0 mm | 2.24 m/s, 1° | - | - |
| 1777420725 | 20° C | 62% | 1022.2 hPa | 0 mm | 0 m/s | - | - |
| 1777420125 | 20.56° C | 61% | 1022.1 hPa | 0 mm | 0 m/s | - | - |
| 1777419525 | 20.56° C | 60% | 1022.1 hPa | 0 mm | 0.45 m/s, 237° | - | - |
| 1777418924 | 21.11° C | 59% | 1022 hPa | 0 mm | 0 m/s | - | - |
| 1777418325 | 21.11° C | 60% | 1021.9 hPa | 0 mm | 0 m/s | - | - |
| 1777417724 | 21.67° C | 57% | 1021.6 hPa | 0 mm | 2.68 m/s, 263° | - | - |
| 1777417125 | 21.67° C | 57% | 1021.2 hPa | 0 mm | 1.34 m/s, 285° | - | - |
| 1777416524 | 21.67° C | 56% | 1021 hPa | 0 mm | 3.13 m/s, 214° | - | - |
| 1777415925 | 22.22° C | 56% | 1021 hPa | 0 mm | 2.68 m/s, 271° | - | - |
| 1777415325 | 22.22° C | 54% | 1020.9 hPa | 0 mm | 0.45 m/s, 197° | - | - |
| 1777414724 | 22.22° C | 55% | 1021 hPa | 0 mm | 4.02 m/s, 328° | - | - |
| 1777414124 | 22.22° C | 55% | 1021 hPa | 0 mm | 2.24 m/s, 248° | - | - |
| 1777413524 | 22.78° C | 54% | 1020.8 hPa | 0 mm | 2.24 m/s, 201° | - | - |
| 1777412924 | 22.78° C | 55% | 1020.7 hPa | 0 mm | 2.24 m/s, 278° | - | - |
| 1777412324 | 22.78° C | 53% | 1020.7 hPa | 0 mm | 2.24 m/s, 242° | - | - |
| 1777411724 | 23.33° C | 53% | 1020.8 hPa | 0 mm | 0.89 m/s, 266° | - | - |
| 1777410525 | 23.33° C | 55% | 1020.5 hPa | 0 mm | 0.45 m/s, 238° | - | - |
| 1777409925 | 23.33° C | 55% | 1020.4 hPa | 0 mm | 2.68 m/s, 247° | - | - |
| 1777409325 | 23.33° C | 58% | 1020.4 hPa | 0 mm | 1.34 m/s, 271° | - | - |
| 1777408724 | 23.33° C | 56% | 1020.3 hPa | 0 mm | 0.89 m/s, 197° | - | - |
| 1777408126 | 22.78° C | 63% | 1020.3 hPa | 0 mm | 3.58 m/s, 180° | - | - |
| 1777407525 | 22.78° C | 59% | 1020.4 hPa | 0 mm | 0.45 m/s, 196° | - | - |
| 1777406924 | 22.78° C | 59% | 1020.5 hPa | 0 mm | 0.45 m/s, 166° | - | - |
* Rain latest hour (hover to see other rain measurements)
** Current wind speed in m/s (hover to see current wind gust speed)